Share

Ceuta, España

Ceuta (ICEUTACE2) Alt 112 ft | 35.88 °N, 5.33 °W | Change Station

Current weather conditions updated 1 second ago

Partly Cloudy
Parcialmente nublado
76.5 ° F
Sensación térmica 78 ° F
N
3.8
Viento Variable Viento desde Este
Gusts 7.8 mph
Amanecer 7:45 AM
Atardecer 8:56 PM
Luna Gibosa menguante

Hoy se prevé un día Mucho más frío que ayer.

Presión 30.01 pul
Visibilidad 5.0 Millas
Nubes Baja 1600 ft
Índice de calor 78 ° F
Punto de rocío 59 ° F
Humedad 54%
Precipitaciones 0.00 pul
Espesor de la nieve No disponible.
UV 0.0 de una escala de 16
Polen No disponible.
Calidad del aire No disponible.
Flu Activity No disponible.
METAR GMTT 171230Z 29006KT 250V330 8000 FEW016 20/14 Q1016 NOSIG

More Conditions Fewer Conditions

Presión 30.01 pul
Visibilidad 5.0 Millas
Nubes Baja 1600 ft
Índice de calor 78 ° F
Punto de rocío 59 ° F
Humedad 54%
Precipitaciones 0.00 pul
Espesor de la nieve No disponible.
UV 0.0 de una escala de 16
Polen No disponible.
Calidad del aire No disponible.
Flu Activity No disponible.
METAR GMTT 171230Z 29006KT 250V330 8000 FEW016 20/14 Q1016 NOSIG

More Conditions Fewer Conditions

10-Day Forecast

Almanac

Astronomía

Apr. 17, 2014 Salida Puesta
Hora real 7:45 AM CEST 8:56 PM CEST
Crepúsculo civil 7:19 AM CEST 9:22 PM CEST
Crepúsculo náutico 6:48 AM CEST 9:54 PM CEST
Crepúsculo astronómico 6:15 AM CEST 10:27 PM CEST
Luna 11:23 PM CEST 9:09 AM CEST
Horas de luz 14h 03m
Horas de luz
13h 10m
Tomorrow will be 2m 8s longer.
Gibosa menguante, 94% of the Moon is Illuminated
Hoy
Gibosa menguante
Abr 22
Cuarto menguante
Abr 29
Nueva
May 6
Cuarto creciente
May 14
Luna llena

Extremos de ayer

Máximos del país Bajas del país

Community

  • sunset from izmir, narlıdere
    sunset from izmir, narlıdere
  • Sunset over the Bay
    Sunset over the Bay
  • Sunrise Serenade
    Sunrise Serenade
  • symphony in blue....
    symphony in blue....
  • Dawn Surprise
    Dawn Surprise

WunderPhotos

Upload Photos

1,701,942 ¡fotos cargadas!

Nearby

Calidad del aire

Not available.

Grosos de nieve

Not available.

Temperaturas de aguas costeras

Lugar Temperatura
Sin partes meteorológicos de las estaciones

Actividad de terremotos

Ciudad Distance Mag. Tiempo y dato
No hay informes recientes de la actividad sísmica.
Magnitud mínima muestra es 2,5.

Estaciones meteorológicas cercanas

Ubicación de la estación Temp. Índice de calor Punto de rocío Humedad Viento Precip. Alt Actualizado Tipo
Ceuta, Ceuta 76.5 ° F 78 ° F 59 ° F 54% Este  a  3.8 mph 0.00 pul / hr 112 ft 2:42 PM CEST Rapid Fire
San Garcia, Algeciras 71.8 ° F 75 ° F 59 ° F 65% ESE  a  3.0 mph 0.00 pul / hr 115 ft 2:30 PM CEST Normal

Show More Stations Show Fewer Stations

What do you think?

We're not finished. Please let us know what you like, what you don't like, and what you are still missing.